Time;durP1;ratioP1;P1;durP2;ratioP2;P2;SDS_P1;SDS_P2;PMS_P1;PMS_P2;Temp;Humidity;BMP_temperature;BMP_pressure;BME280_temperature;BME280_humidity;BME280_pressure;Samples;Min_cycle;Max_cycle;Signal;HPM_P1;HPM_P2
2023/04/23 00:02:08;;;;;;;6.50;5.38;;;15.30;99.90;;;;;;4989362;28;20046;-66
2023/04/23 00:04:37;;;;;;;8.43;5.65;;;15.20;99.90;;;;;;4983377;28;20141;-67
2023/04/23 00:07:05;;;;;;;9.10;5.63;;;15.20;99.90;;;;;;4974258;28;20053;-68
2023/04/23 00:09:34;;;;;;;7.53;5.25;;;15.20;99.90;;;;;;4988864;28;20050;-69
2023/04/23 00:12:02;;;;;;;10.98;5.97;;;15.20;99.90;;;;;;4990329;28;20573;-71
2023/04/23 00:14:30;;;;;;;9.52;6.22;;;15.10;99.90;;;;;;4996959;28;20046;-69
2023/04/23 00:16:57;;;;;;;8.80;6.25;;;15.10;99.90;;;;;;4989653;28;20030;-70
2023/04/23 00:19:26;;;;;;;10.30;5.60;;;15.20;99.90;;;;;;4990816;28;20105;-69
2023/04/23 00:21:53;;;;;;;7.50;6.13;;;15.10;99.90;;;;;;4989262;28;20042;-69
2023/04/23 00:24:20;;;;;;;10.00;6.65;;;15.10;99.90;;;;;;4990711;28;20046;-69
2023/04/23 00:26:48;;;;;;;10.52;7.15;;;15.10;99.90;;;;;;4990696;28;20031;-67
2023/04/23 00:29:15;;;;;;;10.82;6.75;;;15.10;99.90;;;;;;4990147;28;20078;-67
2023/04/23 00:31:43;;;;;;;10.05;6.60;;;15.00;99.90;;;;;;4989436;28;20050;-67
2023/04/23 00:34:10;;;;;;;9.93;6.75;;;15.10;99.90;;;;;;4987771;28;20046;-69
2023/04/23 00:36:37;;;;;;;9.70;6.65;;;15.10;99.90;;;;;;4990886;28;20058;-68
2023/04/23 00:39:06;;;;;;;9.38;6.43;;;15.20;99.90;;;;;;4994006;28;20042;-69
2023/04/23 00:41:34;;;;;;;9.52;6.53;;;15.20;99.90;;;;;;4994236;28;20121;-67
2023/04/23 00:44:02;;;;;;;8.45;6.45;;;15.20;99.90;;;;;;4993390;28;20058;-68
2023/04/23 00:46:29;;;;;;;10.25;6.50;;;15.20;99.90;;;;;;4993416;28;20057;-70
2023/04/23 00:48:59;;;;;;;9.68;6.35;;;15.20;99.90;;;;;;4994967;28;20043;-69
2023/04/23 00:51:27;;;;;;;9.00;6.03;;;15.10;99.90;;;;;;4994607;28;20078;-67
2023/04/23 00:53:55;;;;;;;7.32;6.03;;;15.10;99.90;;;;;;4994027;28;20089;-70
2023/04/23 00:56:24;;;;;;;8.57;6.07;;;15.20;99.90;;;;;;4992952;28;20406;-68
2023/04/23 00:58:52;;;;;;;6.95;5.47;;;15.20;99.90;;;;;;4994568;28;20060;-67
2023/04/23 01:01:20;;;;;;;9.20;5.93;;;15.10;99.90;;;;;;4992973;28;20045;-68
2023/04/23 01:03:49;;;;;;;7.22;5.43;;;15.20;99.90;;;;;;4993940;28;20042;-67
2023/04/23 01:06:18;;;;;;;6.78;5.22;;;15.20;99.90;;;;;;4993798;28;20465;-68
2023/04/23 01:08:46;;;;;;;7.90;5.50;;;15.10;99.90;;;;;;4992631;28;20035;-68
2023/04/23 01:11:15;;;;;;;6.72;5.50;;;15.10;99.90;;;;;;4991337;28;20046;-68
2023/04/23 01:13:43;;;;;;;9.82;5.93;;;15.00;99.90;;;;;;4993829;28;20042;-67
2023/04/23 01:16:10;;;;;;;6.22;5.55;;;15.00;99.90;;;;;;4993844;28;20047;-67
2023/04/23 01:18:39;;;;;;;8.65;5.75;;;15.00;99.90;;;;;;4993032;28;20089;-67
2023/04/23 01:21:10;;;;;;;9.35;5.38;;;15.00;99.90;;;;;;4993934;28;20038;-70
2023/04/23 01:23:38;;;;;;;10.00;6.03;;;15.00;99.90;;;;;;4994340;28;20129;-69
2023/04/23 01:26:06;;;;;;;9.00;5.95;;;15.00;99.90;;;;;;4992290;28;20057;-68
2023/04/23 01:28:34;;;;;;;8.80;6.13;;;15.00;99.90;;;;;;4992957;28;20046;-68
2023/04/23 01:31:02;;;;;;;8.43;6.20;;;14.90;99.90;;;;;;4975250;28;20047;-68
2023/04/23 01:33:31;;;;;;;7.72;5.85;;;14.80;99.90;;;;;;4989826;28;20393;-71
2023/04/23 01:35:59;;;;;;;8.25;5.78;;;14.80;99.90;;;;;;4990706;28;20137;-76
2023/04/23 01:38:29;;;;;;;7.53;5.88;;;14.80;99.90;;;;;;4990375;28;20050;-69
2023/04/23 01:40:56;;;;;;;8.30;6.10;;;14.70;99.90;;;;;;4993667;28;20030;-69
2023/04/23 01:43:24;;;;;;;7.57;5.75;;;14.70;99.90;;;;;;4993375;28;20048;-69
2023/04/23 01:45:51;;;;;;;7.75;5.70;;;14.70;99.90;;;;;;4992289;28;20498;-67
2023/04/23 01:48:20;;;;;;;7.72;5.95;;;14.70;99.90;;;;;;5008040;28;20058;-66
2023/04/23 01:50:49;;;;;;;7.20;5.88;;;14.70;99.90;;;;;;4992600;28;20054;-68
2023/04/23 01:53:17;;;;;;;7.72;5.30;;;14.60;99.90;;;;;;4982154;28;20050;-75
2023/04/23 01:55:49;;;;;;;9.90;5.88;;;14.60;99.90;;;;;;4986029;28;20050;-67
2023/04/23 01:58:18;;;;;;;9.18;6.32;;;14.60;99.90;;;;;;4987807;28;20137;-68
2023/04/23 02:00:45;;;;;;;10.15;5.95;;;14.60;99.90;;;;;;4974204;28;20385;-68
2023/04/23 02:03:13;;;;;;;10.70;6.38;;;14.60;99.90;;;;;;4984367;28;20478;-70
2023/04/23 02:05:42;;;;;;;8.57;5.93;;;14.70;99.90;;;;;;4991745;28;20047;-67
2023/04/23 02:08:11;;;;;;;7.80;5.35;;;14.70;99.90;;;;;;4993029;28;20046;-67
2023/04/23 02:10:39;;;;;;;7.75;5.60;;;14.70;99.90;;;;;;4991609;28;20054;-69
2023/04/23 02:13:06;;;;;;;8.75;5.72;;;14.70;99.90;;;;;;4992757;28;20426;-67
2023/04/23 02:15:34;;;;;;;8.10;5.50;;;14.70;99.90;;;;;;4987828;28;20125;-66
2023/04/23 02:18:01;;;;;;;7.00;5.45;;;14.60;99.90;;;;;;4956399;28;20048;-68
2023/04/23 02:20:29;;;;;;;7.20;5.38;;;14.60;99.90;;;;;;4990966;28;20406;-68
2023/04/23 02:22:56;;;;;;;7.40;5.63;;;14.60;99.90;;;;;;4986489;28;20058;-67
2023/04/23 02:25:23;;;;;;;6.78;5.65;;;14.60;99.90;;;;;;4992147;28;20065;-67
2023/04/23 02:27:51;;;;;;;8.18;5.63;;;14.60;99.90;;;;;;4992637;28;20493;-66
2023/04/23 02:30:21;;;;;;;9.68;6.38;;;14.50;99.90;;;;;;4990966;28;20045;-68
2023/04/23 02:32:50;;;;;;;7.78;5.68;;;14.50;99.90;;;;;;4991262;28;20053;-66
2023/04/23 02:35:17;;;;;;;6.93;5.60;;;14.40;99.90;;;;;;4992032;28;20046;-68
2023/04/23 02:37:47;;;;;;;7.47;5.75;;;14.40;99.90;;;;;;4992633;28;20047;-68
2023/04/23 02:40:14;;;;;;;6.30;4.80;;;14.40;99.90;;;;;;4992223;28;20034;-67
2023/04/23 02:42:42;;;;;;;7.45;5.32;;;14.40;99.90;;;;;;4986088;28;20050;-69
2023/04/23 02:45:10;;;;;;;11.20;5.97;;;14.40;99.90;;;;;;4995014;28;20084;-67
2023/04/23 02:47:38;;;;;;;7.22;5.50;;;14.30;99.90;;;;;;4991701;28;20052;-72
2023/04/23 02:50:06;;;;;;;7.68;5.75;;;14.30;99.90;;;;;;4990655;28;20418;-68
2023/04/23 02:52:33;;;;;;;8.60;6.00;;;14.30;99.90;;;;;;4977147;28;20065;-69
2023/04/23 02:55:01;;;;;;;8.75;5.93;;;14.30;99.90;;;;;;4974104;28;20096;-68
2023/04/23 02:57:29;;;;;;;8.77;6.00;;;14.30;99.90;;;;;;4989426;28;20090;-68
2023/04/23 02:59:57;;;;;;;9.02;5.40;;;14.20;99.90;;;;;;4990991;28;20074;-68
2023/04/23 03:02:32;;;;;;;7.40;5.30;;;14.20;99.90;;;;;;4985886;28;20034;-67
2023/04/23 03:05:00;;;;;;;7.07;5.85;;;14.20;99.90;;;;;;4987369;28;20039;-69
2023/04/23 03:07:27;;;;;;;8.52;5.78;;;14.20;99.90;;;;;;4990150;28;20466;-67
2023/04/23 03:09:54;;;;;;;9.00;5.72;;;14.20;99.90;;;;;;4982796;28;20046;-68
2023/04/23 03:12:23;;;;;;;8.95;5.68;;;14.30;99.90;;;;;;4990370;28;20072;-68
2023/04/23 03:14:50;;;;;;;7.15;5.30;;;14.20;99.90;;;;;;4989923;28;20042;-68
2023/04/23 03:17:18;;;;;;;7.75;5.88;;;14.20;99.90;;;;;;4975741;28;20047;-67
2023/04/23 03:19:45;;;;;;;7.50;5.68;;;14.20;99.90;;;;;;4989330;28;20581;-69
2023/04/23 03:22:14;;;;;;;8.43;6.13;;;14.20;99.90;;;;;;4990465;28;20069;-68
2023/04/23 03:24:41;;;;;;;6.55;5.72;;;14.10;99.90;;;;;;4999889;28;20425;-70
2023/04/23 03:27:09;;;;;;;6.45;5.18;;;14.10;99.90;;;;;;5001881;28;20046;-71
2023/04/23 03:29:37;;;;;;;10.90;5.60;;;14.00;99.90;;;;;;5003166;28;20042;-70
2023/04/23 03:32:05;;;;;;;7.63;5.40;;;14.00;99.90;;;;;;4973004;28;20205;-70
2023/04/23 03:34:33;;;;;;;8.13;5.78;;;13.90;99.90;;;;;;4988476;28;20093;-68
2023/04/23 03:37:01;;;;;;;7.03;5.40;;;13.90;99.90;;;;;;4987848;28;20066;-69
2023/04/23 03:39:31;;;;;;;9.25;5.57;;;13.90;99.90;;;;;;4988167;28;20113;-68
2023/04/23 03:42:00;;;;;;;8.43;5.53;;;13.90;99.90;;;;;;4990712;28;20100;-71
2023/04/23 03:44:30;;;;;;;11.50;5.63;;;13.90;99.90;;;;;;5002012;28;20038;-68
2023/04/23 03:46:58;;;;;;;9.95;5.63;;;13.80;99.90;;;;;;4996268;28;20026;-68
2023/04/23 03:49:26;;;;;;;7.10;5.55;;;13.70;99.90;;;;;;4989339;28;20050;-69
2023/04/23 03:51:55;;;;;;;7.80;5.35;;;13.70;99.90;;;;;;4993360;28;20046;-70
2023/04/23 03:54:24;;;;;;;8.88;5.45;;;13.70;99.90;;;;;;4989108;28;20411;-68
2023/04/23 03:57:03;;;;;;;7.15;5.20;;;13.70;99.90;;;;;;4989642;28;20060;-69
2023/04/23 03:59:37;;;;;;;7.28;5.70;;;13.60;99.90;;;;;;4985631;28;20081;-69
2023/04/23 04:02:05;;;;;;;7.88;5.53;;;13.60;99.90;;;;;;4969633;28;20136;-70
2023/04/23 04:04:32;;;;;;;8.40;5.75;;;13.50;99.90;;;;;;4996209;28;20478;-68
2023/04/23 04:07:00;;;;;;;8.75;5.30;;;13.50;99.90;;;;;;4989528;28;20473;-69
2023/04/23 04:09:28;;;;;;;10.23;5.50;;;13.50;99.90;;;;;;4988862;28;20150;-68
2023/04/23 04:12:00;;;;;;;7.13;5.10;;;13.50;99.90;;;;;;4988083;28;20121;-71
2023/04/23 04:14:27;;;;;;;9.85;5.80;;;13.40;99.90;;;;;;4989933;28;20217;-68
2023/04/23 04:16:55;;;;;;;7.90;6.13;;;13.40;99.90;;;;;;4990262;28;20038;-69
2023/04/23 04:19:23;;;;;;;7.57;5.47;;;13.40;99.90;;;;;;4991400;28;20038;-70
2023/04/23 04:21:51;;;;;;;9.30;6.10;;;13.40;99.90;;;;;;5001134;28;20055;-67
2023/04/23 04:24:20;;;;;;;9.43;6.60;;;13.40;99.90;;;;;;4987934;28;20050;-68
2023/04/23 04:26:51;;;;;;;10.30;6.47;;;13.30;99.90;;;;;;4988224;28;20043;-68
2023/04/23 04:29:20;;;;;;;8.13;5.82;;;13.30;99.90;;;;;;4992864;28;20057;-69
2023/04/23 04:31:47;;;;;;;8.48;6.15;;;13.30;99.90;;;;;;5003783;28;20420;-68
2023/04/23 04:34:16;;;;;;;9.48;6.13;;;13.30;99.90;;;;;;4995345;28;20050;-67
2023/04/23 04:36:46;;;;;;;12.93;6.90;;;13.30;99.90;;;;;;4988466;28;20403;-67
2023/04/23 04:39:13;;;;;;;8.90;6.38;;;13.20;99.90;;;;;;4986663;28;20054;-69
2023/04/23 04:41:41;;;;;;;9.65;6.50;;;13.20;99.90;;;;;;4997132;28;20108;-69
2023/04/23 04:44:08;;;;;;;8.15;6.28;;;13.10;99.90;;;;;;4989408;28;20109;-68
2023/04/23 04:46:39;;;;;;;8.90;6.80;;;13.10;99.90;;;;;;4995261;28;20045;-69
2023/04/23 04:49:11;;;;;;;10.30;6.43;;;13.10;99.90;;;;;;4995719;28;20654;-68
2023/04/23 04:51:40;;;;;;;;;;;13.00;99.90;;;;;;4993574;28;20390;-67
2023/04/23 04:54:07;;;;;;;10.80;6.85;;;13.00;99.90;;;;;;4990115;28;19944;-70
2023/04/23 04:56:34;;;;;;;10.63;6.63;;;13.00;99.90;;;;;;4990115;28;20039;-67
2023/04/23 04:59:02;;;;;;;9.40;6.55;;;12.90;99.90;;;;;;4987219;28;20053;-67
2023/04/23 05:01:31;;;;;;;10.50;6.53;;;13.00;99.90;;;;;;4987344;28;20141;-69
2023/04/23 05:03:58;;;;;;;9.90;7.18;;;13.00;99.90;;;;;;4988753;28;20046;-70
2023/04/23 05:06:27;;;;;;;8.40;6.40;;;13.00;99.90;;;;;;4981673;28;20475;-69
2023/04/23 05:08:56;;;;;;;7.32;6.03;;;13.10;99.90;;;;;;4998187;28;20030;-67
2023/04/23 05:11:23;;;;;;;9.68;6.43;;;13.10;99.90;;;;;;4987717;28;20042;-67
2023/04/23 05:13:51;;;;;;;7.63;5.70;;;13.00;99.90;;;;;;4988483;28;20057;-68
2023/04/23 05:16:18;;;;;;;9.75;6.03;;;13.10;99.90;;;;;;4990784;28;20058;-68
2023/04/23 05:18:46;;;;;;;6.85;5.72;;;13.10;99.90;;;;;;4988902;28;20465;-68
2023/04/23 05:21:14;;;;;;;9.50;5.50;;;13.10;99.90;;;;;;4997141;28;20390;-69
2023/04/23 05:23:42;;;;;;;8.90;5.43;;;13.10;99.90;;;;;;4987955;28;20097;-67
2023/04/23 05:26:09;;;;;;;7.10;5.25;;;13.00;99.90;;;;;;4993275;28;20382;-68
2023/04/23 05:28:40;;;;;;;7.93;5.30;;;13.10;99.90;;;;;;5001423;28;20054;-68
2023/04/23 05:31:07;;;;;;;7.35;4.95;;;13.10;99.90;;;;;;4987905;28;20053;-67
2023/04/23 05:33:34;;;;;;;8.40;5.57;;;13.10;99.90;;;;;;5000447;28;20063;-69
2023/04/23 05:36:15;;;;;;;6.43;4.70;;;13.00;99.90;;;;;;5003263;28;20149;-67
2023/04/23 05:38:42;;;;;;;6.93;4.72;;;13.00;99.90;;;;;;4989387;28;20093;-69
2023/04/23 05:41:10;;;;;;;7.25;5.22;;;13.00;99.90;;;;;;4986069;28;20043;-69
2023/04/23 05:43:38;;;;;;;7.47;5.13;;;13.00;99.90;;;;;;4991590;28;20049;-69
2023/04/23 05:46:06;;;;;;;8.70;5.40;;;12.90;99.90;;;;;;4996099;28;20125;-68
2023/04/23 05:48:34;;;;;;;9.10;5.07;;;12.90;99.90;;;;;;4987640;28;20046;-68
2023/04/23 05:51:03;;;;;;;7.45;4.93;;;12.90;99.90;;;;;;4991654;28;20528;-67
2023/04/23 05:53:31;;;;;;;7.13;4.47;;;13.00;99.90;;;;;;5007730;28;20045;-68
2023/04/23 05:55:59;;;;;;;8.25;5.15;;;13.00;99.90;;;;;;4986464;28;20034;-68
2023/04/23 05:58:26;;;;;;;6.57;4.70;;;13.10;99.90;;;;;;4993138;28;20038;-69
2023/04/23 06:00:56;;;;;;;6.65;4.75;;;13.10;99.90;;;;;;4993059;28;20043;-69
2023/04/23 06:03:24;;;;;;;7.07;5.00;;;13.10;99.90;;;;;;4988290;28;20048;-67
2023/04/23 06:05:52;;;;;;;9.40;5.32;;;13.10;99.90;;;;;;4987581;28;20057;-68
2023/04/23 06:08:20;;;;;;;7.05;5.05;;;13.10;99.90;;;;;;4992876;28;20153;-67
2023/04/23 06:10:52;;;;;;;6.65;4.57;;;13.10;99.90;;;;;;4992731;28;20044;-67
2023/04/23 06:13:20;;;;;;;9.32;5.07;;;13.00;99.90;;;;;;4991028;28;20062;-68
2023/04/23 06:15:48;;;;;;;8.15;5.60;;;13.00;99.90;;;;;;4992813;28;20042;-68
2023/04/23 06:18:15;;;;;;;7.63;5.13;;;13.00;99.90;;;;;;4992480;28;20051;-67
2023/04/23 06:20:43;;;;;;;8.90;5.82;;;13.10;99.90;;;;;;4991717;28;20046;-67
2023/04/23 06:23:12;;;;;;;6.53;4.78;;;13.20;99.90;;;;;;4992179;28;20066;-70
2023/04/23 06:25:39;;;;;;;9.55;4.82;;;13.30;99.90;;;;;;4984011;28;20406;-68
2023/04/23 06:28:06;;;;;;;6.97;4.60;;;13.30;99.90;;;;;;4990538;28;20129;-69
2023/04/23 06:30:42;;;;;;;6.30;4.55;;;13.20;99.90;;;;;;4990892;28;20046;-70
2023/04/23 06:33:11;;;;;;;8.82;5.57;;;13.30;99.90;;;;;;4991963;28;20038;-68
2023/04/23 06:35:38;;;;;;;8.35;4.90;;;13.30;99.90;;;;;;4992575;28;20081;-67
2023/04/23 06:38:07;;;;;;;6.45;4.80;;;13.40;99.90;;;;;;4990898;28;20506;-69
2023/04/23 06:40:35;;;;;;;7.00;4.57;;;13.30;99.90;;;;;;4991464;28;20042;-68
2023/04/23 06:43:04;;;;;;;7.30;5.50;;;13.20;99.90;;;;;;4998795;28;20517;-69
2023/04/23 06:46:00;;;;;;;7.40;4.88;;;13.20;99.90;;;;;;4982197;28;20046;-70
2023/04/23 06:48:28;;;;;;;7.60;5.07;;;13.20;99.90;;;;;;4992168;28;20126;-70
2023/04/23 06:50:55;;;;;;;6.57;4.95;;;13.20;99.90;;;;;;4990770;28;20486;-67
2023/04/23 06:53:22;;;;;;;7.05;4.60;;;13.20;99.90;;;;;;4992256;28;20046;-68
2023/04/23 06:55:50;;;;;;;8.55;5.07;;;13.20;99.90;;;;;;4991420;28;20046;-75
2023/04/23 06:58:18;;;;;;;10.73;6.70;;;13.30;99.90;;;;;;4990777;28;20054;-72
2023/04/23 07:00:46;;;;;;;8.25;5.53;;;13.40;99.90;;;;;;4991938;28;20125;-75
2023/04/23 07:03:13;;;;;;;8.63;5.45;;;13.60;99.90;;;;;;4990302;28;20050;-74
2023/04/23 07:05:41;;;;;;;7.07;4.55;;;13.70;99.90;;;;;;4990072;28;20781;-75
2023/04/23 07:08:08;;;;;;;8.57;5.05;;;13.80;99.90;;;;;;4989804;28;20370;-73
2023/04/23 07:10:36;;;;;;;9.70;5.35;;;13.70;99.90;;;;;;4987613;28;20062;-73
2023/04/23 07:13:03;;;;;;;7.18;4.28;;;13.70;99.90;;;;;;4994356;28;20060;-76
2023/04/23 07:15:31;;;;;;;7.88;5.30;;;13.70;99.90;;;;;;4994043;28;20050;-75
2023/04/23 07:17:58;;;;;;;6.28;4.65;;;13.70;99.90;;;;;;4995547;28;20116;-74
2023/04/23 07:20:25;;;;;;;6.65;4.80;;;13.70;99.90;;;;;;4992959;28;20042;-68
2023/04/23 07:22:53;;;;;;;6.63;4.70;;;13.80;99.90;;;;;;4996043;28;20485;-68
2023/04/23 07:25:21;;;;;;;7.55;4.78;;;13.90;99.90;;;;;;4988005;28;20385;-70
2023/04/23 07:27:48;;;;;;;8.25;4.35;;;13.70;99.90;;;;;;4988382;28;20053;-67
2023/04/23 07:30:16;;;;;;;7.00;4.20;;;13.80;99.90;;;;;;4983479;28;20050;-70
2023/04/23 07:32:45;;;;;;;8.63;5.03;;;13.70;99.90;;;;;;4974312;28;20035;-70
2023/04/23 07:35:14;;;;;;;6.53;4.88;;;13.60;99.90;;;;;;4982120;28;20117;-71
2023/04/23 07:37:42;;;;;;;10.18;4.60;;;13.70;99.90;;;;;;4994787;28;20097;-71
2023/04/23 07:40:10;;;;;;;7.15;4.13;;;13.90;99.90;;;;;;4989738;28;20114;-70
2023/04/23 07:42:38;;;;;;;7.25;4.38;;;13.90;99.90;;;;;;4989245;28;20038;-71
2023/04/23 07:45:06;;;;;;;8.02;4.68;;;14.10;99.90;;;;;;4989570;28;20149;-71
2023/04/23 07:47:33;;;;;;;8.13;4.57;;;14.40;99.90;;;;;;4991353;28;20046;-70
2023/04/23 07:50:01;;;;;;;7.25;5.03;;;14.70;99.90;;;;;;4990970;28;20046;-66
2023/04/23 07:52:28;;;;;;;8.90;4.93;;;15.00;99.90;;;;;;4986334;28;20043;-69
2023/04/23 07:54:55;;;;;;;7.82;5.40;;;15.20;99.90;;;;;;4989266;28;20050;-70
2023/04/23 07:57:23;;;;;;;10.00;5.55;;;15.30;99.90;;;;;;4988774;28;20042;-70
2023/04/23 07:59:51;;;;;;;8.52;6.10;;;15.40;99.90;;;;;;4989996;28;20133;-70
2023/04/23 08:02:22;;;;;;;8.27;5.90;;;15.50;99.90;;;;;;4989762;28;20042;-70
2023/04/23 08:04:52;;;;;;;10.20;5.72;;;15.50;99.90;;;;;;5013831;28;20185;-70
2023/04/23 08:07:19;;;;;;;8.00;6.50;;;15.30;99.90;;;;;;4992953;28;20046;-70
2023/04/23 08:09:47;;;;;;;9.13;6.45;;;15.20;99.90;;;;;;4986202;28;20070;-70
2023/04/23 08:12:16;;;;;;;12.73;8.80;;;15.20;99.90;;;;;;4987895;28;20042;-72
2023/04/23 08:14:43;;;;;;;9.63;6.75;;;15.20;99.90;;;;;;4987968;28;20121;-74
2023/04/23 08:17:13;;;;;;;11.10;6.43;;;15.00;99.90;;;;;;4973899;28;20109;-73
2023/04/23 08:19:41;;;;;;;7.55;5.50;;;15.00;99.90;;;;;;4992543;28;20359;-73
2023/04/23 08:22:09;;;;;;;8.88;6.60;;;14.90;99.90;;;;;;4989415;28;20042;-73
2023/04/23 08:24:37;;;;;;;10.55;6.18;;;14.90;99.90;;;;;;4990737;28;20038;-72
2023/04/23 08:27:04;;;;;;;7.63;5.30;;;15.10;99.90;;;;;;4992125;28;20049;-73
2023/04/23 08:29:32;;;;;;;6.47;4.55;;;15.30;99.90;;;;;;4975986;28;20049;-72
2023/04/23 08:32:00;;;;;;;8.18;5.30;;;15.30;99.90;;;;;;4987137;28;20035;-69
2023/04/23 08:34:29;;;;;;;7.07;5.40;;;15.20;99.90;;;;;;4985617;28;20078;-71
2023/04/23 08:36:56;;;;;;;7.97;5.55;;;15.30;99.90;;;;;;4970741;28;20046;-72
2023/04/23 08:39:24;;;;;;;7.47;5.25;;;15.20;99.90;;;;;;4954726;28;20043;-72
2023/04/23 08:41:54;;;;;;;8.55;5.40;;;15.10;99.90;;;;;;5002941;28;20117;-72
2023/04/23 08:44:24;;;;;;;6.63;3.88;;;15.00;99.90;;;;;;4986133;28;20450;-71
2023/04/23 08:46:53;;;;;;;7.60;3.78;;;14.90;99.90;;;;;;4984976;28;20042;-71
2023/04/23 08:49:20;;;;;;;5.93;3.63;;;14.70;99.90;;;;;;4985783;28;20062;-73
2023/04/23 08:51:53;;;;;;;4.45;3.40;;;14.60;99.90;;;;;;4972358;28;20050;-72
2023/04/23 08:54:27;;;;;;;10.07;5.68;;;14.90;99.90;;;;;;4982453;28;20055;-72
2023/04/23 08:56:59;;;;;;;6.20;4.07;;;15.30;99.90;;;;;;4990313;28;20069;-72
2023/04/23 08:59:31;;;;;;;6.28;4.25;;;15.50;99.90;;;;;;4987313;28;20157;-73
2023/04/23 09:02:06;;;;;;;4.72;3.70;;;15.60;99.90;;;;;;4992910;28;20386;-73
2023/04/23 09:04:35;;;;;;;5.40;3.88;;;15.90;99.90;;;;;;5002902;28;20120;-72
2023/04/23 09:07:03;;;;;;;5.95;3.45;;;16.10;99.90;;;;;;4991482;28;20046;-72
2023/04/23 09:09:33;;;;;;;5.07;3.08;;;16.40;99.90;;;;;;4994426;28;20477;-71
2023/04/23 09:12:01;;;;;;;6.20;3.50;;;16.50;99.90;;;;;;4977541;28;20056;-69
2023/04/23 09:14:29;;;;;;;5.50;3.15;;;16.80;99.90;;;;;;4992544;28;20046;-68
2023/04/23 09:16:56;;;;;;;3.55;2.90;;;17.00;99.90;;;;;;4993332;28;20042;-71
2023/04/23 09:19:29;;;;;;;3.63;2.55;;;17.00;99.90;;;;;;4993253;28;20531;-70
2023/04/23 09:21:59;;;;;;;4.57;3.33;;;16.80;99.90;;;;;;4994537;28;20590;-69
2023/04/23 09:24:27;;;;;;;4.35;3.10;;;16.80;99.90;;;;;;4980882;28;20070;-69
2023/04/23 09:26:56;;;;;;;4.80;3.20;;;16.70;99.90;;;;;;4997756;28;20370;-69
2023/04/23 09:29:25;;;;;;;4.55;2.67;;;16.60;99.90;;;;;;4998276;28;20049;-74
2023/04/23 09:32:08;;;;;;;3.28;2.80;;;16.70;99.90;;;;;;4974165;28;20644;-70
2023/04/23 09:34:36;;;;;;;4.22;3.25;;;17.30;99.90;;;;;;4988040;28;20495;-70
2023/04/23 09:37:06;;;;;;;4.63;2.90;;;17.60;99.90;;;;;;4992168;28;20050;-69
2023/04/23 09:39:34;;;;;;;3.45;2.70;;;17.70;99.90;;;;;;4972518;28;20050;-70
2023/04/23 09:42:04;;;;;;;5.80;3.17;;;17.50;99.90;;;;;;4991985;28;20461;-70
2023/04/23 09:44:32;;;;;;;3.55;2.92;;;17.40;99.90;;;;;;4989655;28;20090;-68
2023/04/23 09:47:13;;;;;;;3.63;3.00;;;17.80;99.90;;;;;;4993670;28;20395;-69
2023/04/23 09:49:46;;;;;;;5.05;3.38;;;17.70;99.90;;;;;;5000095;28;20038;-69
2023/04/23 09:52:14;;;;;;;4.47;3.40;;;17.80;99.90;;;;;;5005124;28;20054;-71
2023/04/23 09:54:43;;;;;;;4.75;3.45;;;18.00;99.90;;;;;;5005357;28;20050;-69
2023/04/23 09:57:12;;;;;;;3.63;3.05;;;17.70;99.90;;;;;;4995209;28;20053;-70
2023/04/23 09:59:39;;;;;;;4.82;3.47;;;17.60;99.90;;;;;;4985750;28;20118;-69
2023/04/23 10:02:12;;;;;;;4.60;3.15;;;18.00;99.90;;;;;;4992668;28;20034;-70
2023/04/23 10:04:40;;;;;;;6.70;3.38;;;18.20;99.90;;;;;;4999244;28;20065;-69
2023/04/23 10:07:12;;;;;;;5.35;3.78;;;18.20;99.90;;;;;;4992997;28;20121;-70
2023/04/23 10:09:42;;;;;;;6.30;3.70;;;18.50;99.90;;;;;;4992438;28;20509;-67
2023/04/23 10:12:11;;;;;;;4.80;3.72;;;18.60;99.90;;;;;;5000050;28;20105;-69
2023/04/23 10:14:43;;;;;;;6.97;3.83;;;18.70;99.90;;;;;;4961635;28;20050;-69
2023/04/23 10:17:11;;;;;;;5.43;3.17;;;18.30;99.90;;;;;;5002138;28;20491;-71
2023/04/23 10:19:41;;;;;;;4.85;3.33;;;18.70;99.90;;;;;;4980107;28;20084;-69
2023/04/23 10:22:11;;;;;;;6.77;3.80;;;18.70;99.90;;;;;;5000247;28;20035;-69
2023/04/23 10:24:44;;;;;;;4.97;3.75;;;18.90;99.90;;;;;;4989077;28;20038;-70
2023/04/23 10:27:20;;;;;;;5.82;4.22;;;19.00;99.90;;;;;;5001176;28;20529;-70
2023/04/23 10:29:51;;;;;;;4.55;3.58;;;19.50;99.90;;;;;;4994124;28;20133;-68
2023/04/23 10:32:20;;;;;;;5.20;3.80;;;20.00;99.90;;;;;;4990607;28;20058;-70
2023/04/23 10:34:48;;;;;;;5.90;3.58;;;20.10;99.90;;;;;;4993381;28;20465;-69
2023/04/23 10:37:18;;;;;;;6.10;3.60;;;20.40;99.90;;;;;;4991944;28;20057;-71
2023/04/23 10:39:50;;;;;;;4.47;3.67;;;20.80;99.90;;;;;;4959498;28;20056;-69
2023/04/23 10:42:17;;;;;;;4.82;3.60;;;20.90;99.90;;;;;;4992415;28;20391;-69
2023/04/23 10:44:45;;;;;;;4.53;3.55;;;21.50;99.90;;;;;;4991373;28;20058;-69
2023/04/23 10:47:30;;;;;;;5.05;3.70;;;21.70;99.90;;;;;;4982015;28;20125;-67
2023/04/23 10:50:16;;;;;;;4.97;3.38;;;22.10;99.90;;;;;;4992252;28;20230;-70
2023/04/23 10:52:45;;;;;;;5.18;4.05;;;21.80;99.90;;;;;;4963926;28;20038;-67
2023/04/23 10:55:17;;;;;;;5.90;3.35;;;22.00;99.90;;;;;;4999445;28;20516;-70
2023/04/23 10:58:15;;;;;;;4.75;3.65;;;21.70;99.90;;;;;;4996423;28;20054;-70
2023/04/23 11:00:46;;;;;;;5.32;4.10;;;21.80;99.90;;;;;;4987758;28;20065;-71
2023/04/23 11:03:41;;;;;;;4.28;3.88;;;21.90;99.90;;;;;;4996863;28;20132;-67
2023/04/23 11:06:19;;;;;;;4.40;3.60;;;22.20;99.90;;;;;;4997452;28;20501;-69
2023/04/23 11:08:52;;;;;;;3.72;3.33;;;22.50;99.90;;;;;;5000840;28;20034;-69
2023/04/23 11:11:39;;;;;;;5.32;3.60;;;23.10;99.90;;;;;;4975304;28;20236;-71
2023/04/23 11:14:14;;;;;;;4.35;3.22;;;23.90;99.90;;;;;;5005641;28;20057;-71
2023/04/23 11:16:42;;;;;;;4.65;3.97;;;24.50;99.90;;;;;;4987122;28;20121;-69
2023/04/23 11:19:11;;;;;;;4.35;3.72;;;24.00;99.90;;;;;;4991075;28;20110;-69
2023/04/23 11:22:02;;;;;;;5.28;3.42;;;23.50;99.90;;;;;;4988450;28;20129;-70
2023/04/23 11:24:41;;;;;;;4.32;3.42;;;24.00;99.90;;;;;;4987374;28;20065;-67
2023/04/23 11:27:16;;;;;;;5.38;3.25;;;23.50;99.90;;;;;;4979622;28;20042;-70
2023/04/23 11:29:45;;;;;;;3.75;3.30;;;23.20;99.90;;;;;;4990042;28;20047;-70
2023/04/23 11:32:15;;;;;;;4.07;3.20;;;23.00;99.90;;;;;;4998728;28;20072;-70
2023/04/23 11:34:45;;;;;;;4.25;3.47;;;23.10;99.90;;;;;;4989869;28;20070;-69
2023/04/23 11:37:14;;;;;;;3.50;3.20;;;23.50;99.90;;;;;;4973132;28;20058;-66
2023/04/23 11:39:48;;;;;;;4.43;3.30;;;23.70;99.90;;;;;;4990814;28;20050;-69
2023/04/23 11:42:18;;;;;;;4.03;3.10;;;24.50;99.90;;;;;;4993232;28;20030;-71
2023/04/23 11:44:46;;;;;;;4.43;3.50;;;25.30;99.90;;;;;;4977546;28;20546;-69
2023/04/23 11:47:17;;;;;;;3.75;2.90;;;25.10;99.90;;;;;;4989069;28;20111;-68
2023/04/23 11:49:44;;;;;;;4.57;3.67;;;24.70;99.90;;;;;;4990416;28;20070;-69
2023/04/23 11:52:13;;;;;;;4.88;4.38;;;24.80;99.90;;;;;;4970172;28;20101;-69
2023/04/23 11:54:41;;;;;;;5.10;4.05;;;25.00;99.90;;;;;;4994896;28;20056;-70
2023/04/23 11:57:09;;;;;;;5.00;3.20;;;25.50;99.90;;;;;;4976095;28;20050;-70
2023/04/23 11:59:37;;;;;;;3.78;3.30;;;25.50;99.90;;;;;;5000429;28;20053;-71
2023/04/23 12:02:04;;;;;;;5.55;3.30;;;25.00;99.90;;;;;;4999806;28;20069;-69
2023/04/23 12:04:32;;;;;;;5.13;3.60;;;24.50;99.90;;;;;;4972898;28;20042;-70
2023/04/23 12:07:00;;;;;;;4.22;3.40;;;24.40;99.90;;;;;;4988748;28;20042;-70
2023/04/23 12:09:37;;;;;;;4.45;3.33;;;24.70;99.90;;;;;;4995148;28;20147;-70
2023/04/23 12:12:05;;;;;;;3.33;2.80;;;26.00;99.90;;;;;;4991618;28;20056;-68
2023/04/23 12:14:32;;;;;;;4.45;3.20;;;25.60;99.90;;;;;;4989684;28;20105;-67
2023/04/23 12:17:09;;;;;;;3.75;3.22;;;26.10;99.90;;;;;;4989632;28;20053;-70
2023/04/23 12:19:37;;;;;;;3.15;2.85;;;25.50;98.70;;;;;;4986276;28;20425;-69
2023/04/23 12:22:07;;;;;;;3.95;3.20;;;25.50;99.30;;;;;;4971941;28;20061;-68
2023/04/23 12:24:53;;;;;;;5.43;3.40;;;25.70;98.50;;;;;;4971341;28;20062;-69
2023/04/23 12:27:21;;;;;;;4.05;3.38;;;25.10;98.90;;;;;;4988867;28;20129;-68
2023/04/23 12:29:59;;;;;;;3.97;3.30;;;24.60;99.70;;;;;;4989265;28;20054;-70
2023/04/23 12:32:26;;;;;;;3.60;3.10;;;24.50;99.60;;;;;;4996777;28;20034;-68
2023/04/23 12:34:55;;;;;;;3.30;3.00;;;24.00;99.50;;;;;;4983415;28;20050;-69
2023/04/23 12:37:30;;;;;;;4.28;2.78;;;23.50;99.80;;;;;;4991717;28;20065;-72
2023/04/23 12:39:58;;;;;;;3.50;3.10;;;23.90;99.90;;;;;;4989402;28;20042;-69
2023/04/23 12:42:25;;;;;;;4.75;3.45;;;24.70;99.20;;;;;;5003319;28;20042;-73
2023/04/23 12:44:56;;;;;;;5.22;3.50;;;24.60;98.60;;;;;;5011472;28;20038;-70
2023/04/23 12:47:23;;;;;;;3.10;2.80;;;24.60;98.40;;;;;;5003654;28;20054;-70
2023/04/23 12:49:52;;;;;;;3.50;3.20;;;24.20;98.40;;;;;;5000113;28;20038;-72
2023/04/23 12:52:20;;;;;;;4.82;3.13;;;23.50;98.40;;;;;;4994744;28;20062;-70
2023/04/23 12:54:51;;;;;;;4.40;3.30;;;22.60;99.90;;;;;;4994255;28;20100;-67
2023/04/23 12:57:21;;;;;;;3.95;3.55;;;22.60;99.90;;;;;;4992917;28;20104;-70